createdAt,value
2018-05-08T00:00:42.262Z,46.33
2018-05-08T00:01:41.843Z,46.32
2018-05-08T00:02:41.858Z,46.33
2018-05-08T00:03:41.731Z,46.32
2018-05-08T00:04:41.842Z,46.35
2018-05-08T00:05:41.834Z,46.29
2018-05-08T00:06:41.984Z,46.31
2018-05-08T00:07:41.957Z,46.3
2018-05-08T00:08:41.761Z,46.35
2018-05-08T00:09:41.926Z,46.26
2018-05-08T00:10:42.001Z,46.35
2018-05-08T00:11:42.027Z,46.28
2018-05-08T00:12:42.025Z,46.33
2018-05-08T00:13:41.926Z,46.35
2018-05-08T00:14:41.706Z,46.32
2018-05-08T00:15:41.815Z,46.32
2018-05-08T00:16:42.029Z,46.38
2018-05-08T00:17:41.957Z,46.26
2018-05-08T00:18:41.857Z,46.28
2018-05-08T00:19:41.936Z,46.3
2018-05-08T00:20:42.015Z,46.26
2018-05-08T00:21:42.183Z,46.3
2018-05-08T00:22:41.832Z,46.31
2018-05-08T00:23:41.849Z,46.29
2018-05-08T00:24:42.027Z,46.31
2018-05-08T00:25:41.751Z,46.28
2018-05-08T00:26:41.854Z,46.27
2018-05-08T00:27:42.024Z,46.31
2018-05-08T00:28:42.099Z,46.29
2018-05-08T00:29:41.999Z,46.29
2018-05-08T00:30:41.870Z,46.29
2018-05-08T00:31:42.001Z,46.3
2018-05-08T00:32:41.914Z,46.28
2018-05-08T00:33:41.846Z,46.29
2018-05-08T00:34:42.012Z,46.3
2018-05-08T00:35:41.886Z,46.29
2018-05-08T00:36:41.786Z,46.28
2018-05-08T00:37:41.965Z,46.26
2018-05-08T00:38:41.785Z,46.29
2018-05-08T00:39:41.856Z,46.31
2018-05-08T00:40:41.826Z,46.26
2018-05-08T00:41:41.965Z,46.22
2018-05-08T00:42:41.921Z,46.27
2018-05-08T00:43:42.036Z,46.37
2018-05-08T00:44:41.901Z,46.26
2018-05-08T00:45:41.865Z,46.25
2018-05-08T00:46:42.076Z,46.33
2018-05-08T00:47:41.790Z,46.26
2018-05-08T00:48:41.948Z,46.28
2018-05-08T00:49:42.027Z,46.3
2018-05-08T00:50:41.861Z,46.29
2018-05-08T00:51:41.785Z,46.26
2018-05-08T00:52:41.789Z,46.28
2018-05-08T00:53:41.965Z,46.28
2018-05-08T00:54:41.865Z,46.23
2018-05-08T00:55:41.923Z,46.26
2018-05-08T00:56:41.778Z,46.23
2018-05-08T00:57:41.973Z,46.3
2018-05-08T00:58:41.776Z,46.25
2018-05-08T00:59:42.120Z,46.21
2018-05-08T01:00:41.932Z,46.3
2018-05-08T01:01:41.875Z,46.31
2018-05-08T01:02:42.048Z,46.25
2018-05-08T01:03:41.775Z,46.32
2018-05-08T01:04:41.972Z,46.35
2018-05-08T01:05:41.952Z,46.26
2018-05-08T01:06:41.785Z,46.24
2018-05-08T01:07:41.917Z,46.24
2018-05-08T01:08:41.836Z,46.25
2018-05-08T01:09:41.798Z,46.23
2018-05-08T01:10:41.842Z,46.27
2018-05-08T01:11:41.930Z,46.21
2018-05-08T01:12:41.963Z,46.28
2018-05-08T01:13:41.995Z,46.25
2018-05-08T01:14:41.836Z,46.27
2018-05-08T01:15:41.920Z,46.23
2018-05-08T01:16:41.963Z,46.27
2018-05-08T01:17:41.870Z,46.25
2018-05-08T01:18:41.854Z,46.26
2018-05-08T01:19:41.962Z,46.21
2018-05-08T01:21:13.888Z,46.22
2018-05-08T01:21:41.769Z,46.26
2018-05-08T01:22:41.948Z,46.25
2018-05-08T01:23:41.810Z,46.23
2018-05-08T01:24:42.003Z,46.28
2018-05-08T01:25:41.754Z,46.26
2018-05-08T01:26:41.928Z,46.2
2018-05-08T01:27:41.878Z,46.28
2018-05-08T01:28:42.048Z,46.3
2018-05-08T01:29:42.095Z,46.2
2018-05-08T01:30:41.875Z,46.27
2018-05-08T01:31:42.219Z,46.29
2018-05-08T01:32:41.916Z,46.2
2018-05-08T01:33:41.683Z,46.25
2018-05-08T01:34:41.802Z,46.22
2018-05-08T01:35:41.876Z,46.23
2018-05-08T01:36:41.777Z,46.28
2018-05-08T01:37:42.170Z,46.2
2018-05-08T01:38:41.855Z,46.24
2018-05-08T01:39:41.960Z,46.22
2018-05-08T01:40:42.013Z,46.26
2018-05-08T01:41:41.735Z,46.23
2018-05-08T01:42:41.890Z,46.23
2018-05-08T01:43:41.840Z,46.25
2018-05-08T01:44:41.977Z,46.23
2018-05-08T01:45:41.815Z,46.28
2018-05-08T01:46:41.898Z,46.3
2018-05-08T01:47:41.950Z,46.24
2018-05-08T01:48:41.755Z,46.27
2018-05-08T01:49:41.873Z,46.25
2018-05-08T01:50:41.812Z,46.25
2018-05-08T01:51:41.943Z,46.22
2018-05-08T01:52:41.800Z,46.23
2018-05-08T01:53:41.963Z,46.23
2018-05-08T01:54:41.967Z,46.21
2018-05-08T01:55:41.730Z,46.25
2018-05-08T01:56:41.839Z,46.2
2018-05-08T01:57:41.865Z,46.22
2018-05-08T01:58:41.787Z,46.27
2018-05-08T01:59:41.923Z,46.19
2018-05-08T02:00:41.894Z,46.22
2018-05-08T02:01:41.950Z,46.21
2018-05-08T02:02:41.832Z,46.19
2018-05-08T02:03:41.921Z,46.22
2018-05-08T02:04:41.930Z,46.3
2018-05-08T02:05:41.832Z,46.2
2018-05-08T02:06:42.337Z,46.2
2018-05-08T02:07:41.916Z,46.22
2018-05-08T02:08:41.875Z,46.21
2018-05-08T02:09:41.896Z,46.25
2018-05-08T02:10:41.729Z,46.26
2018-05-08T02:11:41.833Z,46.2
2018-05-08T02:12:41.979Z,46.24
2018-05-08T02:13:41.788Z,46.24
2018-05-08T02:14:41.865Z,46.27
2018-05-08T02:15:41.996Z,46.22
2018-05-08T02:16:41.729Z,46.29
2018-05-08T02:17:41.759Z,46.19
2018-05-08T02:18:42.064Z,46.23
2018-05-08T02:19:42.118Z,46.2
2018-05-08T02:20:41.896Z,46.21
2018-05-08T02:21:41.767Z,46.22
2018-05-08T02:22:41.878Z,46.24
2018-05-08T02:23:41.977Z,46.18
2018-05-08T02:24:42.013Z,46.26
2018-05-08T02:25:41.832Z,46.22
2018-05-08T02:26:41.883Z,46.18
2018-05-08T02:27:41.771Z,46.2
2018-05-08T02:28:41.883Z,46.25
2018-05-08T02:29:41.811Z,46.22
2018-05-08T02:30:41.965Z,46.24
2018-05-08T02:31:41.771Z,46.28
2018-05-08T02:32:41.729Z,46.24
2018-05-08T02:33:41.889Z,46.25
2018-05-08T02:34:41.873Z,46.24
2018-05-08T02:35:41.781Z,46.21
2018-05-08T02:36:41.848Z,46.23
2018-05-08T02:37:41.943Z,46.22
2018-05-08T02:38:41.996Z,46.17
2018-05-08T02:39:41.957Z,46.17
2018-05-08T02:40:41.950Z,46.26
2018-05-08T02:41:41.805Z,46.21
2018-05-08T02:42:41.846Z,46.17
2018-05-08T02:43:41.789Z,46.24
2018-05-08T02:44:41.843Z,46.21
2018-05-08T02:45:41.793Z,46.25
2018-05-08T02:46:41.882Z,46.25
2018-05-08T02:47:42.027Z,46.18
2018-05-08T02:48:41.865Z,46.24
2018-05-08T02:49:41.886Z,46.25
2018-05-08T02:50:41.784Z,46.23
2018-05-08T02:51:41.836Z,46.25
2018-05-08T02:52:41.885Z,46.24
2018-05-08T02:53:41.861Z,46.18
2018-05-08T02:54:41.704Z,46.18
2018-05-08T02:55:41.981Z,46.26
2018-05-08T02:56:41.689Z,46.16
2018-05-08T02:57:41.857Z,46.22
2018-05-08T02:58:41.909Z,46.25
2018-05-08T02:59:41.807Z,46.23
2018-05-08T03:00:41.753Z,46.2
2018-05-08T03:01:41.904Z,46.21
2018-05-08T03:02:41.910Z,46.24
2018-05-08T03:03:41.939Z,46.19
2018-05-08T03:04:41.994Z,46.25
2018-05-08T03:05:41.813Z,46.18
2018-05-08T03:06:42.007Z,46.21
2018-05-08T03:07:41.945Z,46.21
2018-05-08T03:08:41.985Z,46.2
2018-05-08T03:09:41.912Z,46.19
2018-05-08T03:10:41.914Z,46.2
2018-05-08T03:11:41.945Z,46.16
2018-05-08T03:12:41.847Z,46.21
2018-05-08T03:13:41.871Z,46.21
2018-05-08T03:14:41.873Z,46.15
2018-05-08T03:15:41.980Z,46.2
2018-05-08T03:16:41.663Z,46.22
2018-05-08T03:17:41.871Z,46.22
2018-05-08T03:18:41.794Z,46.18
2018-05-08T03:19:41.862Z,46.23
2018-05-08T03:20:41.780Z,46.19
2018-05-08T03:21:42.092Z,46.21
2018-05-08T03:22:41.752Z,46.23
2018-05-08T03:23:41.905Z,46.17
2018-05-08T03:24:41.825Z,46.14
2018-05-08T03:25:41.953Z,46.17
2018-05-08T03:26:41.680Z,46.19
2018-05-08T03:27:41.754Z,46.18
2018-05-08T03:28:41.787Z,46.18
2018-05-08T03:29:41.832Z,46.14
2018-05-08T03:30:41.843Z,46.18
2018-05-08T03:31:41.913Z,46.22
2018-05-08T03:32:41.842Z,46.21
2018-05-08T03:33:41.966Z,46.17
2018-05-08T03:34:41.781Z,46.19
2018-05-08T03:35:41.787Z,46.15
2018-05-08T03:36:41.806Z,46.13
2018-05-08T03:37:41.965Z,46.22
2018-05-08T03:38:41.704Z,46.14
2018-05-08T03:39:41.847Z,46.14
2018-05-08T03:40:41.908Z,46.22
2018-05-08T03:41:41.677Z,46.14
2018-05-08T03:42:41.933Z,46.2
2018-05-08T03:43:41.936Z,46.18
2018-05-08T03:44:41.807Z,46.13
2018-05-08T03:45:41.827Z,46.19
2018-05-08T03:46:41.802Z,46.18
2018-05-08T03:47:41.717Z,46.22
2018-05-08T03:48:41.712Z,46.16
2018-05-08T03:49:41.821Z,46.19
2018-05-08T03:50:41.707Z,46.13
2018-05-08T03:51:41.712Z,46.14
2018-05-08T03:52:42.051Z,46.16
2018-05-08T03:53:41.909Z,46.17
2018-05-08T03:54:41.930Z,46.18
2018-05-08T03:55:41.917Z,46.2
2018-05-08T03:56:41.712Z,46.16
2018-05-08T03:57:41.772Z,46.16
2018-05-08T03:58:41.831Z,46.15
2018-05-08T03:59:41.835Z,46.17
2018-05-08T04:00:41.798Z,46.12
2018-05-08T04:01:42.068Z,46.18
2018-05-08T04:02:41.879Z,46.13
2018-05-08T04:03:41.772Z,46.15
2018-05-08T04:04:41.768Z,46.1
2018-05-08T04:05:41.884Z,46.13
2018-05-08T04:06:41.775Z,46.15
2018-05-08T04:07:41.999Z,46.17
2018-05-08T04:08:41.898Z,46.16
2018-05-08T04:09:41.820Z,46.12
2018-05-08T04:10:41.978Z,46.2
2018-05-08T04:11:41.696Z,46.09
2018-05-08T04:12:41.746Z,46.18
2018-05-08T04:13:41.868Z,46.15
2018-05-08T04:14:41.809Z,46.03
2018-05-08T04:15:41.884Z,46.13
2018-05-08T04:16:41.763Z,46.15
2018-05-08T04:17:41.971Z,46.13
2018-05-08T04:18:41.808Z,46.15
2018-05-08T04:19:41.819Z,46.2
2018-05-08T04:20:41.961Z,46.15
2018-05-08T04:21:41.865Z,46.15
2018-05-08T04:22:41.847Z,46.2
2018-05-08T04:23:42.012Z,46.09
2018-05-08T04:24:41.920Z,46.11
2018-05-08T04:25:41.800Z,46.12
2018-05-08T04:26:41.811Z,46.18
2018-05-08T04:27:41.827Z,46.19
2018-05-08T04:28:41.826Z,46.15
2018-05-08T04:29:41.833Z,46.12
2018-05-08T04:30:41.946Z,46.15
2018-05-08T04:31:41.783Z,46.17
2018-05-08T04:32:41.810Z,46.14
2018-05-08T04:33:41.740Z,46.12
2018-05-08T04:34:41.872Z,46.19
2018-05-08T04:35:42.012Z,46.14
2018-05-08T04:36:42.059Z,46.17
2018-05-08T04:37:41.907Z,46.11
2018-05-08T04:38:41.841Z,46.11
2018-05-08T04:39:41.747Z,46.16
2018-05-08T04:40:41.804Z,46.19
2018-05-08T04:41:41.757Z,46.1
2018-05-08T04:42:41.825Z,46.14
2018-05-08T04:43:41.939Z,46.17
2018-05-08T04:44:41.721Z,46.13
2018-05-08T04:45:41.922Z,46.39
2018-05-08T04:46:41.874Z,46.29
2018-05-08T04:47:41.826Z,45.5
2018-05-08T04:48:41.933Z,44.83
2018-05-08T04:49:41.767Z,44.6
2018-05-08T04:50:41.851Z,44.52
2018-05-08T04:51:41.769Z,44.13
2018-05-08T04:52:41.826Z,43.78
2018-05-08T04:53:41.764Z,43.82
2018-05-08T04:54:41.802Z,43.65
2018-05-08T04:55:42.083Z,43.63
2018-05-08T04:56:41.740Z,43.47
2018-05-08T04:57:41.953Z,43.45
2018-05-08T04:58:41.825Z,43.67
2018-05-08T04:59:41.877Z,43.44
2018-05-08T05:00:41.816Z,42.97
2018-05-08T05:01:41.943Z,43.36
2018-05-08T05:02:41.780Z,43.26
2018-05-08T05:03:41.965Z,43.36
2018-05-08T05:04:41.746Z,43.42
2018-05-08T05:05:41.747Z,43.19
2018-05-08T05:06:41.913Z,43.17
2018-05-08T05:07:41.750Z,43.18
2018-05-08T05:08:41.839Z,43.07
2018-05-08T05:09:42.043Z,43.46
2018-05-08T05:10:41.935Z,43.07
2018-05-08T05:11:41.921Z,43.04
2018-05-08T05:12:41.978Z,42.81
2018-05-08T05:13:41.743Z,42.57
2018-05-08T05:14:41.904Z,42.88
2018-05-08T05:15:41.809Z,43.05
2018-05-08T05:16:41.907Z,43.11
2018-05-08T05:17:41.906Z,43
2018-05-08T05:18:41.836Z,43.12
2018-05-08T05:19:41.753Z,43.23
2018-05-08T05:20:41.803Z,43.14
2018-05-08T05:21:41.891Z,43.24
2018-05-08T05:22:41.830Z,43.28
2018-05-08T05:23:41.814Z,43.21
2018-05-08T05:24:41.724Z,43.29
2018-05-08T05:25:41.939Z,43.36
2018-05-08T05:26:41.707Z,43.36
2018-05-08T05:27:41.796Z,43.46
2018-05-08T05:28:41.955Z,43.58
2018-05-08T05:29:41.927Z,43.58
2018-05-08T05:30:41.926Z,43.63
2018-05-08T05:31:41.888Z,43.76
2018-05-08T05:32:41.883Z,43.71
2018-05-08T05:33:41.858Z,43.81
2018-05-08T05:34:41.764Z,43.83
2018-05-08T05:35:41.701Z,43.85
2018-05-08T05:36:42.014Z,43.93
2018-05-08T05:37:41.810Z,44.05
2018-05-08T05:38:41.766Z,44.01
2018-05-08T05:39:41.911Z,44.02
2018-05-08T05:40:41.742Z,44.1
2018-05-08T05:41:41.757Z,44.01
2018-05-08T05:42:42.046Z,44.11
2018-05-08T05:43:41.710Z,44.21
2018-05-08T05:44:41.863Z,44.11
2018-05-08T05:45:41.849Z,44.2
2018-05-08T05:46:41.691Z,44.3
2018-05-08T05:47:41.703Z,44.22
2018-05-08T05:48:41.698Z,44.31
2018-05-08T05:49:41.788Z,44.34
2018-05-08T05:50:41.686Z,44.25
2018-05-08T05:51:41.944Z,44.33
2018-05-08T05:52:41.924Z,44.41
2018-05-08T05:53:41.787Z,44.33
2018-05-08T05:54:41.816Z,44.39
2018-05-08T05:55:41.892Z,44.48
2018-05-08T05:56:41.737Z,44.35
2018-05-08T05:57:41.686Z,44.47
2018-05-08T05:58:41.914Z,44.47
2018-05-08T05:59:41.822Z,44.45
2018-05-08T06:00:41.668Z,44.49
2018-05-08T06:01:41.831Z,44.59
2018-05-08T06:02:41.777Z,44.5
2018-05-08T06:03:41.882Z,44.52
2018-05-08T06:04:41.817Z,44.6
2018-05-08T06:05:41.956Z,44.59
2018-05-08T06:06:41.808Z,44.59
2018-05-08T06:07:41.766Z,44.62
2018-05-08T06:08:41.673Z,44.56
2018-05-08T06:09:41.935Z,44.58
2018-05-08T06:10:41.944Z,44.67
2018-05-08T06:11:41.801Z,44.65
2018-05-08T06:12:41.800Z,44.67
2018-05-08T06:13:41.896Z,44.66
2018-05-08T06:14:41.705Z,44.65
2018-05-08T06:15:41.727Z,44.69
2018-05-08T06:16:41.789Z,44.7
2018-05-08T06:17:41.828Z,44.71
2018-05-08T06:18:41.777Z,44.76
2018-05-08T06:19:41.699Z,44.78
2018-05-08T06:20:41.781Z,44.73
2018-05-08T06:21:41.833Z,44.72
2018-05-08T06:22:41.615Z,44.75
2018-05-08T06:23:41.868Z,44.71
2018-05-08T06:24:41.790Z,44.82
2018-05-08T06:25:41.798Z,44.78
2018-05-08T06:26:41.753Z,44.73
2018-05-08T06:27:41.879Z,44.64
2018-05-08T06:28:41.809Z,44.7
2018-05-08T06:29:41.784Z,44.91
2018-05-08T06:30:41.708Z,45.05
2018-05-08T06:31:41.946Z,45.25
2018-05-08T06:32:41.661Z,44.99
2018-05-08T06:33:41.911Z,44.99
2018-05-08T06:34:41.864Z,44.99
2018-05-08T06:35:41.951Z,44.95
2018-05-08T06:36:41.735Z,45
2018-05-08T06:37:41.900Z,44.98
2018-05-08T06:38:41.862Z,44.96
2018-05-08T06:39:41.831Z,45
2018-05-08T06:40:41.822Z,45.09
2018-05-08T06:41:41.692Z,44.98
2018-05-08T06:42:41.876Z,45.02
2018-05-08T06:43:41.790Z,45.01
2018-05-08T06:44:41.880Z,44.95
2018-05-08T06:45:41.695Z,44.87
2018-05-08T06:46:41.827Z,45
2018-05-08T06:47:41.812Z,44.91
2018-05-08T06:48:41.754Z,44.91
2018-05-08T06:49:41.772Z,44.91
2018-05-08T06:50:41.664Z,44.96
2018-05-08T06:51:41.813Z,44.96
2018-05-08T06:52:41.836Z,44.98
2018-05-08T06:53:41.925Z,44.98
2018-05-08T06:54:41.926Z,45.02
2018-05-08T06:55:41.765Z,45.05
2018-05-08T06:56:41.687Z,44.99
2018-05-08T06:57:41.788Z,45.05
2018-05-08T06:58:41.864Z,45.03
2018-05-08T06:59:41.663Z,45.02
2018-05-08T07:00:41.736Z,45.08
2018-05-08T07:01:41.777Z,45.08
2018-05-08T07:02:41.885Z,45.04
2018-05-08T07:03:41.795Z,44.98
2018-05-08T07:04:41.876Z,45.06
2018-05-08T07:05:41.744Z,45.05
2018-05-08T07:06:41.849Z,45.04
2018-05-08T07:07:41.877Z,45.11
2018-05-08T07:08:41.723Z,45.01
2018-05-08T07:09:41.768Z,45.05
2018-05-08T07:11:13.608Z,45.07
2018-05-08T07:11:41.999Z,45.06
2018-05-08T07:12:41.876Z,45.12
2018-05-08T07:13:41.846Z,45.18
2018-05-08T07:14:41.852Z,45.12
2018-05-08T07:15:42.034Z,45.09
2018-05-08T07:16:41.792Z,45.17
2018-05-08T07:17:41.816Z,45.1
2018-05-08T07:18:41.845Z,45.15
2018-05-08T07:19:41.744Z,45.12
2018-05-08T07:20:51.761Z,45.1
2018-05-08T07:21:41.865Z,45.09
2018-05-08T07:22:41.818Z,45.1
2018-05-08T07:23:41.748Z,45.06
2018-05-08T07:24:41.707Z,45.13
2018-05-08T07:25:41.825Z,45.12
2018-05-08T07:26:42.069Z,45.09
2018-05-08T07:27:41.731Z,45.12
2018-05-08T07:28:41.774Z,45.15
2018-05-08T07:29:41.774Z,45.11
2018-05-08T07:30:41.794Z,45.13
2018-05-08T07:31:41.748Z,45.13
2018-05-08T07:32:41.699Z,45.11
2018-05-08T07:33:41.894Z,45.17
2018-05-08T07:34:41.854Z,45.17
2018-05-08T07:35:41.836Z,45.11
2018-05-08T07:36:41.640Z,45.16
2018-05-08T07:37:41.778Z,45.17
2018-05-08T07:38:41.613Z,45.15
2018-05-08T07:39:41.730Z,45.14
2018-05-08T07:40:41.863Z,45.19
2018-05-08T07:41:41.825Z,45.16
2018-05-08T07:42:41.806Z,45.21
2018-05-08T07:43:41.822Z,45.15
2018-05-08T07:44:41.817Z,45.09
2018-05-08T07:45:41.897Z,45.23
2018-05-08T07:46:41.723Z,45.17
2018-05-08T07:47:41.796Z,45.17
2018-05-08T07:48:41.886Z,45.16
2018-05-08T07:49:41.837Z,45.17
2018-05-08T07:50:41.986Z,45.11
2018-05-08T07:51:41.806Z,45.23
2018-05-08T07:52:41.722Z,45.2
2018-05-08T07:53:41.769Z,45.12
2018-05-08T07:54:41.876Z,45.2
2018-05-08T07:55:41.899Z,45.22
2018-05-08T07:56:41.976Z,45.18
2018-05-08T07:57:41.834Z,45.2
2018-05-08T07:58:41.785Z,45.2
2018-05-08T07:59:41.668Z,45.14
2018-05-08T08:00:41.889Z,45.2
2018-05-08T08:01:41.910Z,45.22
2018-05-08T08:02:41.874Z,45.13
2018-05-08T08:03:41.700Z,45.16
2018-05-08T08:04:41.755Z,45.21
2018-05-08T08:05:41.741Z,45.11
2018-05-08T08:06:41.744Z,45.24
2018-05-08T08:07:41.852Z,45.16
2018-05-08T08:08:41.716Z,45.17
2018-05-08T08:09:41.861Z,45.13
2018-05-08T08:10:41.905Z,45.24
2018-05-08T08:11:41.757Z,45.19
2018-05-08T08:12:41.823Z,45.16
2018-05-08T08:13:41.693Z,45.2
2018-05-08T08:14:41.671Z,45.18
2018-05-08T08:15:41.905Z,45.17
2018-05-08T08:16:41.950Z,45.22
2018-05-08T08:17:41.800Z,45.14
2018-05-08T08:18:41.707Z,45.18
2018-05-08T08:19:41.681Z,45.28
2018-05-08T08:20:41.750Z,45.22
2018-05-08T08:21:41.714Z,45.14
2018-05-08T08:22:41.846Z,45.24
2018-05-08T08:23:41.733Z,45.15
2018-05-08T08:24:41.861Z,45.2
2018-05-08T08:25:41.746Z,45.22
2018-05-08T08:26:41.843Z,45.21
2018-05-08T08:27:41.852Z,45.26
2018-05-08T08:28:41.848Z,45.27
2018-05-08T08:29:41.884Z,45.2
2018-05-08T08:30:41.661Z,45.23
2018-05-08T08:31:42.024Z,45.25
2018-05-08T08:32:41.784Z,45.21
2018-05-08T08:33:42.027Z,45.21
2018-05-08T08:34:41.806Z,45.31
2018-05-08T08:35:41.753Z,45.22
2018-05-08T08:36:41.764Z,45.25
2018-05-08T08:37:41.918Z,45.29
2018-05-08T08:38:41.785Z,45.25
2018-05-08T08:39:41.792Z,45.21
2018-05-08T08:40:41.645Z,45.26
2018-05-08T08:41:41.685Z,45.25
2018-05-08T08:42:41.668Z,45.28
2018-05-08T08:43:41.878Z,45.35
2018-05-08T08:44:41.881Z,45.27
2018-05-08T08:45:41.895Z,45.29
2018-05-08T08:46:41.719Z,45.3
2018-05-08T08:47:41.986Z,45.23
2018-05-08T08:48:41.836Z,45.26
2018-05-08T08:49:41.724Z,45.23
2018-05-08T08:50:42.023Z,45.22
2018-05-08T08:51:41.685Z,45.21
2018-05-08T08:52:41.662Z,45.3
2018-05-08T08:53:41.734Z,45.26
2018-05-08T08:54:41.938Z,45.29
2018-05-08T08:55:41.731Z,45.29
2018-05-08T08:56:41.745Z,45.3
2018-05-08T08:57:41.646Z,45.29
2018-05-08T08:58:41.799Z,45.3
2018-05-08T08:59:41.841Z,45.26
2018-05-08T09:00:41.699Z,45.25
2018-05-08T09:01:42.034Z,45.33
2018-05-08T09:02:41.702Z,45.3
2018-05-08T09:03:41.789Z,45.28
2018-05-08T09:04:41.715Z,45.38
2018-05-08T09:05:41.868Z,45.3
2018-05-08T09:06:41.718Z,45.29
2018-05-08T09:07:41.733Z,45.32
2018-05-08T09:08:41.755Z,45.29
2018-05-08T09:09:41.766Z,45.32
2018-05-08T09:10:41.958Z,45.35
2018-05-08T09:11:41.873Z,45.31
2018-05-08T09:12:41.879Z,45.3
2018-05-08T09:13:41.882Z,45.34
2018-05-08T09:14:41.697Z,45.34
2018-05-08T09:15:41.779Z,45.34
2018-05-08T09:16:41.908Z,45.34
2018-05-08T09:17:41.809Z,45.32
2018-05-08T09:18:41.666Z,45.3
2018-05-08T09:19:41.844Z,45.38
2018-05-08T09:20:41.737Z,45.29
2018-05-08T09:21:41.716Z,45.35
2018-05-08T09:22:41.677Z,45.35
2018-05-08T09:23:41.825Z,45.29
2018-05-08T09:24:41.736Z,45.36
2018-05-08T09:25:41.701Z,45.37
2018-05-08T09:26:41.737Z,45.31
2018-05-08T09:27:41.805Z,45.38
2018-05-08T09:28:41.685Z,45.4
2018-05-08T09:29:41.778Z,45.35
2018-05-08T09:30:41.727Z,45.32
2018-05-08T09:31:41.611Z,45.42
2018-05-08T09:32:42.029Z,45.32
2018-05-08T09:33:41.773Z,45.34
2018-05-08T09:34:41.817Z,45.39
2018-05-08T09:35:41.881Z,45.39
2018-05-08T09:36:41.641Z,45.37
2018-05-08T09:37:41.820Z,45.39
2018-05-08T09:38:41.900Z,45.29
2018-05-08T09:39:41.684Z,45.37
2018-05-08T09:40:41.892Z,45.36
2018-05-08T09:41:41.703Z,45.38
2018-05-08T09:42:41.902Z,45.36
2018-05-08T09:43:41.690Z,45.4
2018-05-08T09:44:41.763Z,45.32
2018-05-08T09:45:41.807Z,45.37
2018-05-08T09:46:41.811Z,45.48
2018-05-08T09:47:41.689Z,45.41
2018-05-08T09:48:41.894Z,45.41
2018-05-08T09:49:41.762Z,45.41
2018-05-08T09:50:41.684Z,45.33
2018-05-08T09:51:42.594Z,45.39
2018-05-08T09:52:42.471Z,45.43
2018-05-08T09:53:42.301Z,45.38
2018-05-08T09:54:42.288Z,45.43
2018-05-08T09:55:42.350Z,45.38
2018-05-08T09:56:42.415Z,45.41
2018-05-08T09:57:42.364Z,45.39
2018-05-08T09:58:42.324Z,45.44
2018-05-08T09:59:42.456Z,45.42
2018-05-08T10:00:42.534Z,45.44
2018-05-08T10:01:42.565Z,45.44
2018-05-08T10:02:42.501Z,45.41
2018-05-08T10:03:42.471Z,45.39
2018-05-08T10:04:42.335Z,45.47
2018-05-08T10:05:42.426Z,45.4
2018-05-08T10:06:43.327Z,45.43
2018-05-08T10:07:42.402Z,45.53
2018-05-08T10:08:42.476Z,45.43
2018-05-08T10:09:42.213Z,45.39
2018-05-08T10:10:42.386Z,45.43
2018-05-08T10:11:42.507Z,45.39
2018-05-08T10:12:42.399Z,45.42
2018-05-08T10:13:42.371Z,45.45
2018-05-08T10:14:42.583Z,45.42
2018-05-08T10:15:42.479Z,45.45
2018-05-08T10:16:42.283Z,45.47
2018-05-08T10:17:42.458Z,45.4
2018-05-08T10:18:42.236Z,45.47
2018-05-08T10:19:42.315Z,45.45
2018-05-08T10:20:42.383Z,45.48
2018-05-08T10:21:42.487Z,45.59
2018-05-08T10:22:42.460Z,45.61
2018-05-08T10:23:42.438Z,45.49
2018-05-08T10:24:42.543Z,45.56
2018-05-08T10:25:42.573Z,45.54
2018-05-08T10:26:42.467Z,45.5
2018-05-08T10:27:42.628Z,45.49
2018-05-08T10:28:42.647Z,45.6
2018-05-08T10:29:42.741Z,45.5
2018-05-08T10:30:42.431Z,45.47
2018-05-08T10:31:42.599Z,45.48
2018-05-08T10:32:42.417Z,45.53
2018-05-08T10:33:42.468Z,45.44
2018-05-08T10:34:42.483Z,45.47
2018-05-08T10:35:42.268Z,45.49
2018-05-08T10:36:42.557Z,45.38
2018-05-08T10:37:42.524Z,45.48
2018-05-08T10:38:42.217Z,45.39
2018-05-08T10:39:42.539Z,45.42
2018-05-08T10:40:42.555Z,45.42
2018-05-08T10:41:42.254Z,45.45
2018-05-08T10:42:42.387Z,45.46
2018-05-08T10:43:42.388Z,45.48
2018-05-08T10:44:42.492Z,45.43
2018-05-08T10:45:42.535Z,45.42
2018-05-08T10:46:42.453Z,45.43
2018-05-08T10:47:42.305Z,45.38
2018-05-08T10:48:42.382Z,45.39
2018-05-08T10:49:42.589Z,45.37
2018-05-08T10:50:41.673Z,45.5
2018-05-08T10:51:42.593Z,45.4
2018-05-08T10:52:42.635Z,45.43
2018-05-08T10:53:41.595Z,45.46
2018-05-08T10:54:42.546Z,45.45
2018-05-08T10:55:42.596Z,45.4
2018-05-08T10:56:42.583Z,45.42
2018-05-08T10:57:41.648Z,45.39
2018-05-08T10:58:41.914Z,45.5
2018-05-08T10:59:42.599Z,45.39
2018-05-08T11:00:41.625Z,45.4
2018-05-08T11:01:42.351Z,45.44
2018-05-08T11:02:41.587Z,45.42
2018-05-08T11:03:42.576Z,45.4
2018-05-08T11:04:42.429Z,45.43
2018-05-08T11:05:41.654Z,45.42
2018-05-08T11:06:41.635Z,45.45
2018-05-08T11:07:41.702Z,45.52
2018-05-08T11:08:42.571Z,45.44
2018-05-08T11:09:41.656Z,45.46
2018-05-08T11:10:42.226Z,45.5
2018-05-08T11:11:41.611Z,45.49
2018-05-08T11:12:42.534Z,45.46
2018-05-08T11:13:42.143Z,45.56
2018-05-08T11:14:42.661Z,45.45
2018-05-08T11:15:42.289Z,45.47
2018-05-08T11:16:41.656Z,45.5
2018-05-08T11:17:42.650Z,45.43
2018-05-08T11:18:42.705Z,45.45
2018-05-08T11:19:42.881Z,45.5
2018-05-08T11:20:41.698Z,45.44
2018-05-08T11:21:42.334Z,45.43
2018-05-08T11:22:41.671Z,45.46
2018-05-08T11:23:41.673Z,45.44
2018-05-08T11:24:42.718Z,45.47
2018-05-08T11:25:41.698Z,45.52
2018-05-08T11:26:42.583Z,45.44
2018-05-08T11:27:41.729Z,45.49
2018-05-08T11:28:42.199Z,45.47
2018-05-08T11:29:42.177Z,45.45
2018-05-08T11:30:41.912Z,45.47
2018-05-08T11:31:42.209Z,45.44
2018-05-08T11:32:41.835Z,45.41
2018-05-08T11:33:42.173Z,45.41
2018-05-08T11:34:42.019Z,45.46
2018-05-08T11:35:42.392Z,45.41
2018-05-08T11:36:41.623Z,45.44
2018-05-08T11:37:41.597Z,45.53
2018-05-08T11:38:42.692Z,45.45
2018-05-08T11:39:41.685Z,45.43
2018-05-08T11:40:41.733Z,45.51
2018-05-08T11:41:41.700Z,45.42
2018-05-08T11:42:42.510Z,45.43
2018-05-08T11:43:42.370Z,45.47
2018-05-08T11:44:41.719Z,45.43
2018-05-08T11:45:41.716Z,45.45
2018-05-08T11:46:41.605Z,45.52
2018-05-08T11:47:41.745Z,45.41
2018-05-08T11:48:42.305Z,45.42
2018-05-08T11:49:41.670Z,45.52
2018-05-08T11:50:42.245Z,45.46
2018-05-08T11:51:41.851Z,45.48
2018-05-08T11:52:41.958Z,45.49
2018-05-08T11:53:41.839Z,45.46
2018-05-08T11:54:41.944Z,45.5
2018-05-08T11:55:41.943Z,45.46
2018-05-08T11:56:41.833Z,45.48
2018-05-08T11:57:41.887Z,45.49
2018-05-08T11:58:41.839Z,45.52
2018-05-08T11:59:41.973Z,45.52
2018-05-08T12:00:41.936Z,45.43
2018-05-08T12:01:41.959Z,45.51
2018-05-08T12:02:42.192Z,45.54
2018-05-08T12:03:41.962Z,45.45
2018-05-08T12:04:44.445Z,45.47
2018-05-08T12:05:41.837Z,45.44
2018-05-08T12:06:42.210Z,45.46
2018-05-08T12:07:44.221Z,45.47
2018-05-08T12:08:41.845Z,45.49
2018-05-08T12:09:41.882Z,45.44
2018-05-08T12:10:41.841Z,45.45
2018-05-08T12:11:41.848Z,45.48
2018-05-08T12:12:44.269Z,45.52
2018-05-08T12:13:41.852Z,45.57
2018-05-08T12:14:42.079Z,45.44
2018-05-08T12:15:41.956Z,45.43
2018-05-08T12:16:45.319Z,45.44
2018-05-08T12:17:41.955Z,45.43
2018-05-08T12:18:42.234Z,45.43
2018-05-08T12:19:41.855Z,45.46
2018-05-08T12:20:41.861Z,45.45
2018-05-08T12:21:42.082Z,45.44
2018-05-08T12:22:44.576Z,45.47
2018-05-08T12:23:41.890Z,45.45
2018-05-08T12:24:41.941Z,45.47
2018-05-08T12:25:41.975Z,45.51
2018-05-08T12:26:41.931Z,45.49
2018-05-08T12:27:41.944Z,45.5
2018-05-08T12:28:41.550Z,45.52
2018-05-08T12:29:41.857Z,45.45
2018-05-08T12:30:43.839Z,45.45
2018-05-08T12:31:41.967Z,45.5
2018-05-08T12:32:42.110Z,45.42
2018-05-08T12:33:41.928Z,45.47
2018-05-08T12:34:41.937Z,45.48
2018-05-08T12:35:42.241Z,45.52
2018-05-08T12:36:41.970Z,45.46
2018-05-08T12:37:41.837Z,45.52
2018-05-08T12:38:44.023Z,45.48
2018-05-08T12:39:41.861Z,45.42
2018-05-08T12:40:41.857Z,45.53
2018-05-08T12:41:41.868Z,45.48
2018-05-08T12:42:42.007Z,45.49
2018-05-08T12:43:42.028Z,45.53
2018-05-08T12:44:41.873Z,45.43
2018-05-08T12:45:41.871Z,45.44
2018-05-08T12:46:42.616Z,45.47
2018-05-08T12:47:41.962Z,45.47
2018-05-08T12:48:42.257Z,45.4
2018-05-08T12:49:41.561Z,45.45
2018-05-08T12:50:41.575Z,45.52
2018-05-08T12:51:41.751Z,45.48
2018-05-08T12:52:41.796Z,45.57
2018-05-08T12:53:41.703Z,45.49
2018-05-08T12:54:41.729Z,45.49
2018-05-08T12:55:41.757Z,45.59